Time;durP1;ratioP1;P1;durP2;ratioP2;P2;SDS_P1;SDS_P2;PMS_P1;PMS_P2;Temp;Humidity;BMP_temperature;BMP_pressure;BME280_temperature;BME280_humidity;BME280_pressure;Samples;Min_cycle;Max_cycle;Signal;HPM_P1;HPM_P2
2022/11/08 00:01:49;;;;;;;16.38;3.70;;;;;;;;;;4983221;28;20089;-77
2022/11/08 00:04:16;;;;;;;13.13;3.70;;;;;;;;;;4981819;28;20043;-77
2022/11/08 00:14:57;;;;;;;18.60;3.60;;;;;;;;;;4978633;28;20053;-78
2022/11/08 00:17:25;;;;;;;12.27;4.15;;;;;;;;;;4978387;28;20494;-75
2022/11/08 00:19:52;;;;;;;15.23;3.80;;;;;;;;;;4972198;28;20031;-77
2022/11/08 00:22:18;;;;;;;19.13;4.53;;;;;;;;;;4987843;28;20046;-77
2022/11/08 00:24:44;;;;;;;19.80;4.22;;;;;;;;;;4990293;28;20041;-77
2022/11/08 00:27:15;;;;;;;22.65;4.88;;;;;;;;;;4985905;28;20034;-76
2022/11/08 00:29:41;;;;;;;14.68;3.83;;;;;;;;;;4983736;28;20038;-77
2022/11/08 00:32:08;;;;;;;14.60;3.45;;;;;;;;;;4985742;28;20026;-77
2022/11/08 00:34:35;;;;;;;15.45;4.18;;;;;;;;;;4971903;28;20049;-78
2022/11/08 00:37:01;;;;;;;14.93;4.13;;;;;;;;;;4985386;28;20038;-77
2022/11/08 00:39:27;;;;;;;15.90;4.70;;;;;;;;;;4973039;28;20053;-77
2022/11/08 00:41:53;;;;;;;13.60;3.63;;;;;;;;;;4989235;28;20030;-77
2022/11/08 00:44:19;;;;;;;14.88;3.63;;;;;;;;;;4988463;28;20065;-77
2022/11/08 00:46:45;;;;;;;14.82;3.67;;;;;;;;;;4968016;28;20497;-77
2022/11/08 00:49:11;;;;;;;16.20;4.72;;;;;;;;;;4985487;28;20030;-77
2022/11/08 00:51:37;;;;;;;18.63;3.95;;;;;;;;;;4987414;28;20048;-76
2022/11/08 00:54:05;;;;;;;21.75;4.32;;;;;;;;;;4995958;28;20029;-78
2022/11/08 00:56:31;;;;;;;19.05;4.90;;;;;;;;;;4967894;28;20038;-75
2022/11/08 00:58:57;;;;;;;20.45;3.78;;;;;;;;;;4987692;28;20116;-78
2022/11/08 01:01:23;;;;;;;13.75;3.85;;;;;;;;;;4989333;28;20034;-77
2022/11/08 01:03:50;;;;;;;21.45;4.90;;;;;;;;;;4971017;28;20030;-77
2022/11/08 01:06:17;;;;;;;15.00;4.40;;;;;;;;;;4973293;28;20041;-76
2022/11/08 01:08:43;;;;;;;14.70;3.75;;;;;;;;;;4988833;28;20093;-75
2022/11/08 01:11:17;;;;;;;17.10;3.70;;;;;;;;;;4987267;28;20027;-77
2022/11/08 01:13:43;;;;;;;13.70;3.65;;;;;;;;;;4989546;28;20437;-79
2022/11/08 01:16:11;;;;;;;23.45;4.85;;;;;;;;;;4993389;28;20101;-78
2022/11/08 01:18:37;;;;;;;22.13;4.13;;;;;;;;;;4984942;28;20138;-77
2022/11/08 01:21:03;;;;;;;17.38;4.57;;;;;;;;;;4993990;28;20158;-78
2022/11/08 01:23:29;;;;;;;18.85;4.50;;;;;;;;;;4994615;28;20034;-79
2022/11/08 01:25:55;;;;;;;20.33;4.65;;;;;;;;;;4978620;28;20040;-76
2022/11/08 01:28:21;;;;;;;17.52;4.50;;;;;;;;;;4985329;28;20066;-78
2022/11/08 01:30:48;;;;;;;13.85;4.20;;;;;;;;;;4998961;28;20109;-77
2022/11/08 01:33:14;;;;;;;17.50;4.95;;;;;;;;;;4982037;28;20058;-75
2022/11/08 01:35:43;;;;;;;17.05;6.22;;;;;;;;;;4999742;28;20018;-76
2022/11/08 01:38:09;;;;;;;17.77;5.18;;;;;;;;;;4994266;28;20043;-77
2022/11/08 01:40:46;;;;;;;16.13;4.38;;;;;;;;;;4991355;28;20033;-77
2022/11/08 01:43:30;;;;;;;16.10;4.22;;;;;;;;;;4996550;28;20025;-77
2022/11/08 01:46:10;;;;;;;12.10;4.35;;;;;;;;;;4996839;28;20901;-77
2022/11/08 01:48:38;;;;;;;16.42;4.03;;;;;;;;;;4993850;28;20022;-76
2022/11/08 01:51:07;;;;;;;17.75;4.40;;;;;;;;;;4994769;28;20035;-76
2022/11/08 01:53:33;;;;;;;17.52;4.72;;;;;;;;;;4988567;28;20062;-77
2022/11/08 01:55:59;;;;;;;19.20;4.60;;;;;;;;;;4974568;28;20482;-76
2022/11/08 01:58:26;;;;;;;15.35;4.78;;;;;;;;;;4988102;28;20782;-76
2022/11/08 02:00:52;;;;;;;15.07;4.22;;;;;;;;;;4986106;28;20026;-75
2022/11/08 02:03:19;;;;;;;20.77;4.82;;;;;;;;;;4987418;28;20038;-76
2022/11/08 02:05:46;;;;;;;15.23;4.57;;;;;;;;;;4966382;28;20023;-75
2022/11/08 02:08:12;;;;;;;20.50;4.53;;;;;;;;;;4967868;28;20054;-75
2022/11/08 02:10:39;;;;;;;22.70;6.03;;;;;;;;;;4984246;28;20077;-76
2022/11/08 02:13:08;;;;;;;22.80;5.57;;;;;;;;;;4983754;28;20469;-75
2022/11/08 02:15:34;;;;;;;15.85;4.80;;;;;;;;;;4986062;28;20051;-75
2022/11/08 02:18:01;;;;;;;16.58;5.00;;;;;;;;;;4983501;28;20498;-76
2022/11/08 02:20:27;;;;;;;18.77;5.35;;;;;;;;;;4967719;28;20034;-75
2022/11/08 02:22:59;;;;;;;20.05;4.97;;;;;;;;;;4985417;28;20445;-74
2022/11/08 02:25:26;;;;;;;17.13;5.03;;;;;;;;;;4985069;28;20034;-76
2022/11/08 02:27:52;;;;;;;24.13;5.22;;;;;;;;;;4983897;28;20041;-75
2022/11/08 02:30:18;;;;;;;17.23;5.30;;;;;;;;;;4964951;28;20022;-75
2022/11/08 02:32:44;;;;;;;16.42;5.47;;;;;;;;;;4966537;28;20506;-76
2022/11/08 02:35:12;;;;;;;17.30;4.60;;;;;;;;;;4983112;28;20056;-76
2022/11/08 02:37:39;;;;;;;21.23;4.95;;;;;;;;;;4985574;28;20030;-76
2022/11/08 02:40:06;;;;;;;15.45;4.53;;;;;;;;;;4989199;28;20049;-76
2022/11/08 02:42:32;;;;;;;12.73;5.10;;;;;;;;;;4989639;28;20069;-74
2022/11/08 02:44:58;;;;;;;19.42;4.93;;;;;;;;;;4952947;28;20501;-75
2022/11/08 02:47:24;;;;;;;18.77;5.35;;;;;;;;;;4994805;28;20027;-76
2022/11/08 02:49:50;;;;;;;16.30;5.28;;;;;;;;;;4995423;28;20384;-76
2022/11/08 02:52:16;;;;;;;12.38;4.88;;;;;;;;;;4978266;28;20246;-78
2022/11/08 02:54:42;;;;;;;14.48;4.32;;;;;;;;;;4980379;28;20034;-76
2022/11/08 02:57:08;;;;;;;14.68;5.07;;;;;;;;;;4999926;28;20046;-76
2022/11/08 02:59:34;;;;;;;20.15;5.60;;;;;;;;;;4998524;28;20126;-74
2022/11/08 03:02:00;;;;;;;18.17;4.80;;;;;;;;;;4994438;28;20190;-77
2022/11/08 03:04:26;;;;;;;18.17;5.03;;;;;;;;;;5003182;28;20045;-76
2022/11/08 03:06:52;;;;;;;12.48;5.20;;;;;;;;;;5000262;28;20030;-75
2022/11/08 03:09:18;;;;;;;15.55;5.22;;;;;;;;;;4978111;28;20057;-77
2022/11/08 03:11:44;;;;;;;20.33;5.60;;;;;;;;;;5000616;28;20050;-76
2022/11/08 03:14:10;;;;;;;18.83;5.68;;;;;;;;;;4999706;28;20022;-77
2022/11/08 03:16:36;;;;;;;16.58;4.93;;;;;;;;;;4991630;28;20042;-77
2022/11/08 03:19:03;;;;;;;19.92;4.90;;;;;;;;;;4993931;28;20042;-78
2022/11/08 03:21:29;;;;;;;14.30;4.97;;;;;;;;;;4991449;28;20061;-77
2022/11/08 03:23:55;;;;;;;17.90;5.30;;;;;;;;;;4988340;28;20452;-77
2022/11/08 03:26:22;;;;;;;14.20;5.07;;;;;;;;;;4986203;28;20026;-78
2022/11/08 03:28:48;;;;;;;12.52;4.85;;;;;;;;;;4971726;28;20093;-77
2022/11/08 03:31:14;;;;;;;15.82;5.60;;;;;;;;;;4990227;28;20030;-77
2022/11/08 03:33:40;;;;;;;17.35;5.13;;;;;;;;;;4996050;28;20038;-77
2022/11/08 03:36:06;;;;;;;15.30;5.18;;;;;;;;;;4988046;28;20496;-77
2022/11/08 03:38:32;;;;;;;21.65;4.90;;;;;;;;;;4987515;28;20034;-77
2022/11/08 03:40:58;;;;;;;15.35;4.93;;;;;;;;;;4988860;28;20034;-76
2022/11/08 03:43:25;;;;;;;14.18;5.05;;;;;;;;;;4985518;28;20060;-76
2022/11/08 03:45:51;;;;;;;15.43;4.85;;;;;;;;;;4986168;28;20092;-75
2022/11/08 03:48:17;;;;;;;14.63;5.43;;;;;;;;;;4988129;28;20035;-77
2022/11/08 03:50:43;;;;;;;15.15;5.20;;;;;;;;;;4986651;28;20026;-77
2022/11/08 03:53:09;;;;;;;20.02;5.32;;;;;;;;;;4987253;28;20034;-76
2022/11/08 03:55:35;;;;;;;18.25;5.20;;;;;;;;;;4986995;28;20038;-76
2022/11/08 03:58:01;;;;;;;13.52;5.63;;;;;;;;;;4988337;28;20750;-77
2022/11/08 04:00:28;;;;;;;14.25;5.18;;;;;;;;;;4986625;28;20486;-76
2022/11/08 04:02:57;;;;;;;15.75;5.07;;;;;;;;;;4984368;28;20026;-76
2022/11/08 04:05:23;;;;;;;11.63;4.65;;;;;;;;;;4983342;28;20165;-76
2022/11/08 04:07:49;;;;;;;11.85;4.80;;;;;;;;;;4989995;28;20109;-76
2022/11/08 04:10:16;;;;;;;11.77;4.80;;;;;;;;;;4986852;28;20113;-76
2022/11/08 04:15:29;;;;;;;15.82;5.13;;;;;;;;;;4992620;28;20054;-76
2022/11/08 04:23:26;;;;;;;15.27;4.88;;;;;;;;;;4994234;28;20080;-77
2022/11/08 04:25:53;;;;;;;14.70;4.82;;;;;;;;;;4981589;28;20485;-77
2022/11/08 04:28:19;;;;;;;17.92;6.13;;;;;;;;;;4996940;28;20041;-74
2022/11/08 04:30:45;;;;;;;11.23;5.20;;;;;;;;;;4999110;28;20694;-77
2022/11/08 04:33:11;;;;;;;13.07;4.05;;;;;;;;;;4977171;28;20034;-77
2022/11/08 04:35:37;;;;;;;14.52;4.15;;;;;;;;;;4997438;28;20038;-77
2022/11/08 04:38:03;;;;;;;17.02;5.30;;;;;;;;;;4992668;28;20053;-76
2022/11/08 04:40:30;;;;;;;13.07;4.22;;;;;;;;;;4988301;28;20066;-76
2022/11/08 04:42:56;;;;;;;15.95;4.53;;;;;;;;;;4987952;28;20493;-76
2022/11/08 04:45:23;;;;;;;8.48;4.13;;;;;;;;;;4991491;28;20041;-76
2022/11/08 04:47:49;;;;;;;13.73;4.00;;;;;;;;;;4986989;28;20638;-77
2022/11/08 04:50:15;;;;;;;12.50;4.10;;;;;;;;;;4966658;28;20061;-75
2022/11/08 04:52:41;;;;;;;9.82;4.03;;;;;;;;;;4972227;28;21391;-76
2022/11/08 04:55:08;;;;;;;11.02;4.10;;;;;;;;;;4987050;28;20041;-77
2022/11/08 04:57:34;;;;;;;12.88;3.78;;;;;;;;;;4989812;28;20023;-77
2022/11/08 05:00:00;;;;;;;14.52;4.30;;;;;;;;;;4988796;28;20062;-78
2022/11/08 05:02:26;;;;;;;11.32;4.18;;;;;;;;;;4984435;28;20034;-77
2022/11/08 05:04:52;;;;;;;15.27;4.60;;;;;;;;;;4982451;28;20100;-76
2022/11/08 05:07:19;;;;;;;10.13;4.22;;;;;;;;;;4984743;28;20039;-76
2022/11/08 05:09:45;;;;;;;11.85;4.07;;;;;;;;;;4986611;28;20022;-76
2022/11/08 05:12:11;;;;;;;13.32;4.28;;;;;;;;;;4981940;28;20037;-77
2022/11/08 05:14:37;;;;;;;12.60;3.72;;;;;;;;;;4984383;28;20033;-76
2022/11/08 05:17:04;;;;;;;10.95;4.55;;;;;;;;;;4984195;28;20026;-76
2022/11/08 05:24:59;;;;;;;13.30;4.95;;;;;;;;;;4984606;28;20077;-77
2022/11/08 05:27:25;;;;;;;11.73;3.70;;;;;;;;;;4986852;28;20038;-78
2022/11/08 05:29:51;;;;;;;12.68;3.50;;;;;;;;;;4972864;28;20082;-77
2022/11/08 05:32:17;;;;;;;7.65;3.78;;;;;;;;;;4992131;28;20006;-77
2022/11/08 05:34:43;;;;;;;9.20;3.38;;;;;;;;;;4989051;28;20118;-76
2022/11/08 05:37:09;;;;;;;8.43;3.25;;;;;;;;;;4959820;28;20035;-78
2022/11/08 05:39:35;;;;;;;11.45;3.70;;;;;;;;;;4998788;28;20042;-77
2022/11/08 05:42:10;;;;;;;15.40;4.60;;;;;;;;;;4990859;28;20038;-76
2022/11/08 05:44:36;;;;;;;15.98;4.55;;;;;;;;;;4998151;28;20102;-78
2022/11/08 05:47:03;;;;;;;10.85;3.65;;;;;;;;;;4978369;28;20044;-78
2022/11/08 05:49:29;;;;;;;10.13;3.70;;;;;;;;;;4980452;28;20057;-78
2022/11/08 05:51:55;;;;;;;13.52;3.45;;;;;;;;;;4994553;28;20402;-77
2022/11/08 05:54:21;;;;;;;9.23;4.20;;;;;;;;;;4990275;28;20038;-78
2022/11/08 05:56:47;;;;;;;14.52;4.40;;;;;;;;;;4975939;28;20022;-77
2022/11/08 05:59:13;;;;;;;11.90;5.38;;;;;;;;;;4989281;28;20044;-77
2022/11/08 06:01:39;;;;;;;13.75;3.72;;;;;;;;;;4968930;28;20047;-78
2022/11/08 06:04:05;;;;;;;15.43;4.78;;;;;;;;;;4970197;28;20064;-77
2022/11/08 06:06:31;;;;;;;11.07;3.58;;;;;;;;;;4983374;28;20033;-76
2022/11/08 06:08:57;;;;;;;15.90;3.97;;;;;;;;;;4979429;28;20518;-76
2022/11/08 06:11:24;;;;;;;11.48;3.50;;;;;;;;;;4981933;28;20038;-77
2022/11/08 06:13:50;;;;;;;10.98;3.80;;;;;;;;;;4979886;28;20027;-76
2022/11/08 06:16:17;;;;;;;8.82;3.50;;;;;;;;;;4984180;28;20113;-77
2022/11/08 06:18:43;;;;;;;12.80;3.78;;;;;;;;;;4988707;28;20022;-77
2022/11/08 06:21:19;;;;;;;17.38;4.15;;;;;;;;;;4975165;28;20066;-77
2022/11/08 06:23:45;;;;;;;11.30;3.47;;;;;;;;;;4985165;28;20054;-78
2022/11/08 06:26:11;;;;;;;9.63;3.97;;;;;;;;;;4969308;28;20040;-77
2022/11/08 06:28:37;;;;;;;13.30;4.57;;;;;;;;;;4971812;28;20046;-76
2022/11/08 06:31:04;;;;;;;9.57;3.80;;;;;;;;;;4986181;28;20041;-76
2022/11/08 06:33:30;;;;;;;11.50;4.20;;;;;;;;;;4969677;28;20062;-76
2022/11/08 06:35:56;;;;;;;15.15;4.70;;;;;;;;;;4982291;28;20457;-77
2022/11/08 06:38:22;;;;;;;8.25;3.95;;;;;;;;;;4982814;28;20048;-76
2022/11/08 06:40:48;;;;;;;9.90;3.90;;;;;;;;;;4985630;28;20042;-78
2022/11/08 06:43:14;;;;;;;13.68;4.30;;;;;;;;;;4991364;28;20035;-76
2022/11/08 06:45:40;;;;;;;14.75;4.38;;;;;;;;;;4984301;28;20124;-77
2022/11/08 06:48:07;;;;;;;11.40;3.70;;;;;;;;;;4976906;28;20678;-76
2022/11/08 06:50:34;;;;;;;9.48;3.40;;;;;;;;;;4971322;28;20058;-75
2022/11/08 06:53:01;;;;;;;12.35;3.75;;;;;;;;;;4984687;28;20114;-76
2022/11/08 06:55:27;;;;;;;9.13;3.80;;;;;;;;;;4963966;28;20485;-76
2022/11/08 06:57:53;;;;;;;10.85;3.30;;;;;;;;;;4983049;28;20062;-77
2022/11/08 07:00:20;;;;;;;9.50;4.10;;;;;;;;;;4984618;28;20038;-77
2022/11/08 07:02:50;;;;;;;7.55;3.40;;;;;;;;;;4985713;28;20069;-77
2022/11/08 07:05:16;;;;;;;10.70;3.55;;;;;;;;;;4964252;28;20466;-76
2022/11/08 07:07:44;;;;;;;10.10;3.38;;;;;;;;;;4967822;28;20089;-76
2022/11/08 07:10:10;;;;;;;9.38;3.20;;;;;;;;;;4982232;28;20030;-76
2022/11/08 07:12:37;;;;;;;6.70;3.50;;;;;;;;;;4985428;28;20081;-75
2022/11/08 07:15:03;;;;;;;8.48;3.20;;;;;;;;;;4985899;28;20034;-76
2022/11/08 07:17:29;;;;;;;10.27;3.22;;;;;;;;;;4988771;28;20035;-76
2022/11/08 07:19:55;;;;;;;11.02;3.53;;;;;;;;;;4985793;28;20045;-76
2022/11/08 07:22:22;;;;;;;14.13;4.25;;;;;;;;;;4988212;28;20482;-77
2022/11/08 07:24:48;;;;;;;9.27;3.35;;;;;;;;;;4991427;28;20049;-76
2022/11/08 07:27:14;;;;;;;11.52;3.80;;;;;;;;;;4973148;28;20058;-76
2022/11/08 07:29:40;;;;;;;7.07;3.13;;;;;;;;;;4973317;28;20035;-77
2022/11/08 07:32:06;;;;;;;9.68;3.10;;;;;;;;;;4992131;28;20038;-77
2022/11/08 07:34:32;;;;;;;12.75;3.13;;;;;;;;;;4993061;28;20041;-76
2022/11/08 07:36:59;;;;;;;6.72;2.90;;;;;;;;;;4993103;28;20035;-77
2022/11/08 07:39:25;;;;;;;7.63;2.80;;;;;;;;;;4989930;28;20047;-73
2022/11/08 07:41:51;;;;;;;11.30;3.00;;;;;;;;;;4972361;28;20031;-79
2022/11/08 07:44:17;;;;;;;7.55;3.00;;;;;;;;;;4984466;28;20038;-74
2022/11/08 07:46:43;;;;;;;8.73;3.25;;;;;;;;;;4988310;28;20528;-75
2022/11/08 07:49:09;;;;;;;7.25;2.83;;;;;;;;;;4973252;28;20038;-77
2022/11/08 07:51:35;;;;;;;6.72;2.63;;;;;;;;;;4967149;28;20462;-77
2022/11/08 07:54:01;;;;;;;7.63;2.80;;;;;;;;;;4985767;28;20031;-79
2022/11/08 07:56:27;;;;;;;10.15;3.20;;;;;;;;;;4986178;28;20033;-77
2022/11/08 07:58:53;;;;;;;7.22;2.70;;;;;;;;;;4986281;28;20113;-74
2022/11/08 08:01:19;;;;;;;7.93;2.97;;;;;;;;;;4969063;28;20053;-78
2022/11/08 08:03:45;;;;;;;7.10;3.00;;;;;;;;;;4970200;28;20031;-74
2022/11/08 08:06:11;;;;;;;10.60;3.88;;;;;;;;;;4970026;28;20481;-76
2022/11/08 08:08:37;;;;;;;13.43;3.15;;;;;;;;;;4987585;28;20060;-77
2022/11/08 08:11:04;;;;;;;7.15;3.05;;;;;;;;;;4991128;28;20030;-75
2022/11/08 08:13:30;;;;;;;8.95;3.15;;;;;;;;;;4972591;28;20027;-75
2022/11/08 08:15:59;;;;;;;8.18;2.90;;;;;;;;;;4991533;28;20023;-75
2022/11/08 08:18:25;;;;;;;9.55;3.05;;;;;;;;;;4984731;28;20512;-77
2022/11/08 08:20:51;;;;;;;9.27;3.50;;;;;;;;;;4998604;28;20233;-79
2022/11/08 08:23:17;;;;;;;9.68;3.00;;;;;;;;;;4994296;28;20070;-75
2022/11/08 08:25:43;;;;;;;11.00;3.78;;;;;;;;;;4969495;28;20147;-77
2022/11/08 08:28:10;;;;;;;7.93;3.08;;;;;;;;;;4973153;28;20128;-79
2022/11/08 08:30:37;;;;;;;8.55;3.38;;;;;;;;;;4998683;28;20031;-78
2022/11/08 08:33:13;;;;;;;9.82;3.42;;;;;;;;;;4995690;28;20034;-76
2022/11/08 08:35:39;;;;;;;8.82;3.20;;;;;;;;;;4986213;28;20023;-72
2022/11/08 08:38:06;;;;;;;9.70;3.22;;;;;;;;;;4975972;28;20035;-76
2022/11/08 08:40:32;;;;;;;8.05;2.78;;;;;;;;;;4997224;28;20022;-75
2022/11/08 08:42:59;;;;;;;9.20;3.17;;;;;;;;;;4977302;28;20113;-74
2022/11/08 08:45:26;;;;;;;6.97;2.92;;;;;;;;;;4982044;28;20131;-78
2022/11/08 08:47:53;;;;;;;6.28;2.83;;;;;;;;;;4988961;28;20026;-78
2022/11/08 08:50:19;;;;;;;6.55;2.85;;;;;;;;;;4993158;28;20042;-79
2022/11/08 08:52:45;;;;;;;5.55;2.80;;;;;;;;;;4993415;28;20062;-74
2022/11/08 08:55:11;;;;;;;4.82;2.78;;;;;;;;;;4986770;28;20144;-76
2022/11/08 08:57:37;;;;;;;6.45;3.35;;;;;;;;;;4995481;28;20022;-76
2022/11/08 09:00:04;;;;;;;8.88;3.13;;;;;;;;;;4993310;28;20085;-76
2022/11/08 09:02:30;;;;;;;7.05;2.85;;;;;;;;;;4993997;28;20153;-77
2022/11/08 09:04:56;;;;;;;6.25;2.53;;;;;;;;;;4996964;28;20445;-77
2022/11/08 09:07:22;;;;;;;5.32;2.42;;;;;;;;;;4980617;28;20034;-76
2022/11/08 09:09:48;;;;;;;6.75;2.88;;;;;;;;;;4993751;28;20126;-75
2022/11/08 09:12:14;;;;;;;10.40;2.95;;;;;;;;;;4995769;28;20035;-75
2022/11/08 09:14:40;;;;;;;7.03;2.88;;;;;;;;;;4977048;28;20034;-76
2022/11/08 09:17:06;;;;;;;7.43;2.72;;;;;;;;;;4962807;28;20038;-73
2022/11/08 09:19:32;;;;;;;7.70;2.70;;;;;;;;;;4992037;28;20141;-75
2022/11/08 09:21:58;;;;;;;5.93;2.65;;;;;;;;;;4995509;28;20268;-77
2022/11/08 09:24:24;;;;;;;7.15;3.13;;;;;;;;;;4995023;28;20066;-76
2022/11/08 09:26:50;;;;;;;6.43;2.85;;;;;;;;;;4995901;28;20041;-75
2022/11/08 09:29:16;;;;;;;6.97;2.13;;;;;;;;;;4981194;28;20057;-77
2022/11/08 09:31:42;;;;;;;5.78;2.33;;;;;;;;;;4977419;28;20034;-77
2022/11/08 09:34:08;;;;;;;6.75;2.50;;;;;;;;;;4993866;28;20233;-77
2022/11/08 09:36:34;;;;;;;5.18;2.40;;;;;;;;;;4989417;28;20031;-76
2022/11/08 09:39:00;;;;;;;6.47;2.33;;;;;;;;;;4986615;28;20043;-77
2022/11/08 09:41:45;;;;;;;7.15;2.80;;;;;;;;;;4974114;28;20565;-77
2022/11/08 09:44:17;;;;;;;7.10;2.60;;;;;;;;;;4974934;28;20477;-76
2022/11/08 09:46:48;;;;;;;5.78;2.90;;;;;;;;;;4990096;28;20033;-76
2022/11/08 09:49:34;;;;;;;6.40;2.50;;;;;;;;;;4991029;28;20042;-78
2022/11/08 09:52:03;;;;;;;7.15;2.30;;;;;;;;;;4990435;28;20105;-76
2022/11/08 09:54:38;;;;;;;7.50;2.40;;;;;;;;;;4991428;28;20437;-76
2022/11/08 09:57:05;;;;;;;6.90;2.70;;;;;;;;;;4991513;28;20034;-77
2022/11/08 09:59:42;;;;;;;10.80;2.63;;;;;;;;;;4972617;28;20126;-77
2022/11/08 10:02:22;;;;;;;13.90;2.80;;;;;;;;;;4986302;28;20105;-78
2022/11/08 10:05:08;;;;;;;7.05;2.55;;;;;;;;;;4990686;28;20072;-78
2022/11/08 10:07:40;;;;;;;6.22;2.40;;;;;;;;;;4990023;28;20030;-77
2022/11/08 10:10:06;;;;;;;3.58;2.22;;;;;;;;;;4989089;28;20037;-77
2022/11/08 10:12:44;;;;;;;6.07;2.22;;;;;;;;;;4989681;28;20039;-77
2022/11/08 10:15:28;;;;;;;9.27;2.53;;;;;;;;;;4983039;28;20065;-77
2022/11/08 10:18:09;;;;;;;5.40;1.95;;;;;;;;;;4985349;28;20026;-77
2022/11/08 10:20:50;;;;;;;6.95;2.30;;;;;;;;;;4986554;28;20027;-76
2022/11/08 10:23:20;;;;;;;6.97;2.58;;;;;;;;;;4987543;28;20124;-77
2022/11/08 10:26:00;;;;;;;11.63;2.40;;;;;;;;;;4989743;28;20105;-79
2022/11/08 10:28:30;;;;;;;6.85;2.30;;;;;;;;;;4989131;28;20030;-77
2022/11/08 10:30:57;;;;;;;6.63;2.35;;;;;;;;;;4999207;28;20011;-78
2022/11/08 10:33:31;;;;;;;7.18;2.50;;;;;;;;;;4978793;28;20045;-78
2022/11/08 10:35:59;;;;;;;8.10;2.28;;;;;;;;;;4966603;28;20027;-77
2022/11/08 10:38:46;;;;;;;4.28;2.33;;;;;;;;;;4979647;28;20030;-77
2022/11/08 10:41:17;;;;;;;7.68;2.90;;;;;;;;;;4991268;28;20034;-78
2022/11/08 10:43:53;;;;;;;10.35;2.88;;;;;;;;;;4990182;28;20030;-79
2022/11/08 10:46:37;;;;;;;6.22;2.60;;;;;;;;;;4990811;28;20034;-77
2022/11/08 10:49:12;;;;;;;5.43;2.22;;;;;;;;;;4991350;28;20030;-76
2022/11/08 10:51:38;;;;;;;5.53;2.22;;;;;;;;;;4986486;28;20022;-77
2022/11/08 10:54:04;;;;;;;6.30;2.15;;;;;;;;;;4972315;28;20031;-78
2022/11/08 10:56:30;;;;;;;10.10;2.55;;;;;;;;;;4982929;28;20022;-78
2022/11/08 10:58:56;;;;;;;7.68;2.40;;;;;;;;;;4955066;28;20038;-77
2022/11/08 11:01:24;;;;;;;4.30;2.05;;;;;;;;;;4990228;28;20367;-77
2022/11/08 11:03:51;;;;;;;6.30;2.53;;;;;;;;;;4997097;28;20026;-77
2022/11/08 11:06:29;;;;;;;7.00;2.45;;;;;;;;;;4976650;28;20095;-77
2022/11/08 11:09:00;;;;;;;6.50;2.35;;;;;;;;;;4986269;28;20164;-76
2022/11/08 11:11:34;;;;;;;8.57;2.55;;;;;;;;;;4994053;28;20080;-77
2022/11/08 11:14:17;;;;;;;7.25;2.25;;;;;;;;;;4994926;28;20022;-77
2022/11/08 11:17:02;;;;;;;7.13;2.70;;;;;;;;;;4993148;28;20030;-79
2022/11/08 11:19:29;;;;;;;8.63;2.42;;;;;;;;;;4994035;28;20038;-78
2022/11/08 11:21:57;;;;;;;6.22;2.20;;;;;;;;;;4994854;28;20486;-76
2022/11/08 11:24:23;;;;;;;4.18;2.25;;;;;;;;;;4964423;28;20041;-77
2022/11/08 11:27:01;;;;;;;5.70;2.42;;;;;;;;;;4982050;28;20167;-75
2022/11/08 11:29:35;;;;;;;5.07;1.92;;;;;;;;;;4994395;28;20126;-76
2022/11/08 11:32:21;;;;;;;7.47;2.20;;;;;;;;;;4995214;28;20026;-76
2022/11/08 11:34:52;;;;;;;8.52;2.58;;;;;;;;;;4985451;28;20048;-75
2022/11/08 11:37:18;;;;;;;;;;;;;;;;;;4994599;28;20022;-77
2022/11/08 11:39:51;;;;;;;5.63;2.25;;;;;;;;;;4977161;28;20392;-77
2022/11/08 11:45:43;;;;;;;8.57;2.53;;;;;;;;;;4992866;28;20030;-77
2022/11/08 11:48:15;;;;;;;7.93;2.80;;;;;;;;;;4984729;28;20536;-76
2022/11/08 11:50:44;;;;;;;9.95;2.78;;;;;;;;;;4993651;28;20026;-78
2022/11/08 11:53:16;;;;;;;6.32;2.30;;;;;;;;;;4999462;28;20026;-76
2022/11/08 11:55:43;;;;;;;5.45;2.35;;;;;;;;;;4995956;28;20038;-79
2022/11/08 11:58:29;;;;;;;8.20;2.72;;;;;;;;;;4990705;28;20030;-76
2022/11/08 12:01:13;;;;;;;8.20;2.33;;;;;;;;;;4971852;28;20493;-76
2022/11/08 12:03:58;;;;;;;4.35;2.28;;;;;;;;;;4977135;28;20032;-75
2022/11/08 12:06:42;;;;;;;5.65;1.90;;;;;;;;;;4990805;28;20030;-76
2022/11/08 12:09:18;;;;;;;8.60;2.40;;;;;;;;;;5000070;28;20125;-76
2022/11/08 12:11:50;;;;;;;6.32;2.80;;;;;;;;;;4971372;28;20561;-76
2022/11/08 12:14:22;;;;;;;7.97;2.70;;;;;;;;;;4982876;28;20023;-79
2022/11/08 12:16:57;;;;;;;5.45;2.25;;;;;;;;;;4997194;28;20028;-78
2022/11/08 12:19:23;;;;;;;7.53;2.20;;;;;;;;;;4987794;28;20098;-77
2022/11/08 12:22:01;;;;;;;6.28;2.10;;;;;;;;;;4982780;28;20046;-78
2022/11/08 12:24:27;;;;;;;9.32;2.60;;;;;;;;;;4991417;28;20026;-76
2022/11/08 12:26:53;;;;;;;5.13;2.50;;;;;;;;;;4990472;28;20034;-78
2022/11/08 12:29:23;;;;;;;7.75;3.00;;;;;;;;;;4990155;28;20104;-78
2022/11/08 12:32:08;;;;;;;9.45;2.53;;;;;;;;;;4986026;28;20027;-76
2022/11/08 12:34:51;;;;;;;5.15;2.63;;;;;;;;;;4984227;28;20569;-78
2022/11/08 12:37:29;;;;;;;8.65;2.40;;;;;;;;;;4983548;28;20061;-77
2022/11/08 12:39:55;;;;;;;7.45;2.65;;;;;;;;;;4976100;28;20030;-78
2022/11/08 12:42:27;;;;;;;5.88;2.13;;;;;;;;;;4978855;28;20417;-76
2022/11/08 12:45:12;;;;;;;9.00;2.45;;;;;;;;;;4983904;28;20045;-75
2022/11/08 12:47:38;;;;;;;8.90;3.17;;;;;;;;;;4991378;28;20169;-76
2022/11/08 12:50:19;;;;;;;7.05;2.30;;;;;;;;;;4983143;28;20545;-77
2022/11/08 12:53:04;;;;;;;5.90;2.38;;;;;;;;;;4974857;28;20027;-81
2022/11/08 12:55:34;;;;;;;8.13;2.17;;;;;;;;;;4977912;28;20536;-76
2022/11/08 12:58:01;;;;;;;8.63;2.50;;;;;;;;;;4982514;28;20041;-78
2022/11/08 13:00:28;;;;;;;8.45;2.40;;;;;;;;;;4983754;28;20015;-77
2022/11/08 13:03:01;;;;;;;8.82;2.67;;;;;;;;;;4988870;28;20034;-76
2022/11/08 13:05:37;;;;;;;7.60;2.40;;;;;;;;;;4999511;28;20035;-78
2022/11/08 13:08:19;;;;;;;7.63;2.58;;;;;;;;;;4991373;28;20548;-77
2022/11/08 13:10:46;;;;;;;6.88;2.78;;;;;;;;;;4986727;28;20027;-78
2022/11/08 13:13:12;;;;;;;9.82;2.95;;;;;;;;;;4982172;28;20085;-75
2022/11/08 13:15:58;;;;;;;9.63;3.50;;;;;;;;;;4979056;28;20023;-74
2022/11/08 13:18:32;;;;;;;10.40;2.30;;;;;;;;;;4972275;28;20393;-75
2022/11/08 13:20:58;;;;;;;9.45;2.72;;;;;;;;;;4977289;28;20038;-75
2022/11/08 13:23:29;;;;;;;5.97;2.22;;;;;;;;;;4989377;28;20078;-75
2022/11/08 13:26:10;;;;;;;7.22;2.40;;;;;;;;;;4993262;28;20078;-75
2022/11/08 13:28:40;;;;;;;12.10;3.35;;;;;;;;;;4990357;28;20034;-77
2022/11/08 13:31:12;;;;;;;5.78;2.60;;;;;;;;;;4993604;28;20030;-75
2022/11/08 13:33:41;;;;;;;5.85;2.20;;;;;;;;;;4986410;28;20031;-73
2022/11/08 13:36:34;;;;;;;16.38;3.63;;;;;;;;;;4986326;28;20053;-76
2022/11/08 13:39:00;;;;;;;12.35;2.40;;;;;;;;;;4959173;28;20034;-76
2022/11/08 13:41:26;;;;;;;10.88;2.80;;;;;;;;;;4989428;28;20092;-78
2022/11/08 13:43:55;;;;;;;10.38;3.38;;;;;;;;;;4993175;28;20031;-75
2022/11/08 13:46:28;;;;;;;11.98;3.03;;;;;;;;;;4973701;28;20026;-74
2022/11/08 13:48:57;;;;;;;7.18;2.58;;;;;;;;;;4992379;28;20589;-74
2022/11/08 13:51:26;;;;;;;8.13;2.40;;;;;;;;;;4987489;28;20033;-76
2022/11/08 13:53:56;;;;;;;14.45;2.78;;;;;;;;;;4991367;28;20015;-74
2022/11/08 13:56:27;;;;;;;7.72;2.50;;;;;;;;;;4983400;28;20062;-76
2022/11/08 13:58:53;;;;;;;11.63;3.10;;;;;;;;;;4986202;28;20046;-76
2022/11/08 14:01:22;;;;;;;8.55;2.70;;;;;;;;;;4984892;28;20391;-77
2022/11/08 14:03:48;;;;;;;8.63;2.83;;;;;;;;;;4987220;28;20485;-77
2022/11/08 14:06:23;;;;;;;7.13;2.47;;;;;;;;;;4988707;28;20022;-74
2022/11/08 14:09:03;;;;;;;7.97;2.97;;;;;;;;;;4971012;28;20030;-76
2022/11/08 14:11:35;;;;;;;10.05;2.45;;;;;;;;;;4983306;28;20046;-76
2022/11/08 14:14:11;;;;;;;7.68;2.63;;;;;;;;;;4980342;28;20200;-76
2022/11/08 14:16:46;;;;;;;9.75;2.70;;;;;;;;;;4990733;28;20030;-75
2022/11/08 14:19:21;;;;;;;8.93;2.70;;;;;;;;;;4991338;28;20045;-77
2022/11/08 14:21:52;;;;;;;7.70;2.95;;;;;;;;;;4989312;28;20402;-76
2022/11/08 14:24:23;;;;;;;9.57;2.72;;;;;;;;;;4978670;28;20042;-76
2022/11/08 14:26:49;;;;;;;12.43;2.80;;;;;;;;;;4987856;28;20177;-76
2022/11/08 14:29:16;;;;;;;17.17;4.03;;;;;;;;;;4987556;28;20073;-76
2022/11/08 14:31:43;;;;;;;12.88;3.42;;;;;;;;;;4988927;28;20035;-76
2022/11/08 14:34:26;;;;;;;10.35;3.15;;;;;;;;;;4987611;28;20027;-77
2022/11/08 14:36:55;;;;;;;10.55;2.72;;;;;;;;;;4989117;28;20022;-76
2022/11/08 14:39:24;;;;;;;5.65;2.47;;;;;;;;;;4966479;28;20022;-76
2022/11/08 14:41:54;;;;;;;8.30;2.63;;;;;;;;;;4995638;28;20058;-77
2022/11/08 14:44:21;;;;;;;7.53;3.33;;;;;;;;;;4988952;28;20027;-76
2022/11/08 14:46:48;;;;;;;9.40;2.75;;;;;;;;;;4989883;28;20289;-75
2022/11/08 14:49:14;;;;;;;8.82;2.65;;;;;;;;;;5003273;28;20061;-74
2022/11/08 14:51:40;;;;;;;10.40;2.67;;;;;;;;;;5006464;28;20028;-74
2022/11/08 14:54:16;;;;;;;9.63;2.75;;;;;;;;;;4985889;28;20035;-75
2022/11/08 14:56:43;;;;;;;11.48;2.80;;;;;;;;;;4986970;28;20014;-76
2022/11/08 14:59:11;;;;;;;6.50;2.70;;;;;;;;;;4987247;28;20034;-75
2022/11/08 15:01:37;;;;;;;10.75;2.40;;;;;;;;;;4987713;28;20037;-75
2022/11/08 15:04:05;;;;;;;9.52;2.55;;;;;;;;;;4998975;28;20022;-77
2022/11/08 15:06:38;;;;;;;7.47;2.50;;;;;;;;;;4971316;28;20025;-77
2022/11/08 15:09:05;;;;;;;8.95;3.05;;;;;;;;;;4991215;28;20137;-75
2022/11/08 15:11:35;;;;;;;9.40;2.97;;;;;;;;;;4989333;28;20033;-74